Cherokee — WDA6285 — position and weather

sailwx.info

Track history (hours):
 
Tides and Currents Weather Stations Pressure Air Temp Water Temp Dewpoint Dewpoint Depression Visibility Wind Speed Wind Dir Waves Ship Positions

Cherokee

Owner: Koontz, John D, Santa Barbara, CA. More information available from US FCC via Universal Licensing System and Coast Guard Vessel Documentation Center.

Last reported at 2018-Apr-22 22:44 UTC. Time now 2018-May-23 07:02 UTC.
Position N 34°25' W 119°41'.
Warning: this ship's position is 30 days out of date.

Length 14 m.

Type: Pleasure craft. MMSI: 366830720.

Date/timePositionNaut miles runAvg speedWind from/ knotsBaromVisibWave heightAir tempDewpointWater temp
2018-Apr-22 22:44N 34°25' W 119°41'1 5.0
2018-Apr-22 22:30N 34°24' W 119°40'4 6.6
2018-Apr-22 21:57N 34°22' W 119°36'3 6.6
2018-Apr-22 21:30N 34°20' W 119°33'3 6.7
2018-Apr-22 20:58N 34°18' W 119°30'3 6.7
2018-Apr-22 20:30N 34°16' W 119°27'3 6.7
2018-Apr-22 19:59N 34°14' W 119°23'3 6.8
2018-Apr-22 19:30N 34°13' W 119°20'3 6.7
2018-Apr-22 19:00N 34°11' W 119°17'3 5.6
2018-Apr-22 18:30N 34°09' W 119°14'  
2018-Apr-19 18:10N 34°10' W 119°14'7 5.9
2018-Apr-19 16:56N 34°13' W 119°21'3 7.3
2018-Apr-19 16:29N 34°15' W 119°24'4 7.3
2018-Apr-19 15:52N 34°18' W 119°29'4 7.3
2018-Apr-19 15:18N 34°20' W 119°33'  
Track history (hours):
 
Tides and Currents Weather Stations Pressure Air Temp Water Temp Dewpoint Dewpoint Depression Visibility Wind Speed Wind Dir Waves Ship Positions

Cherokee

Owner: Koontz, John D, Santa Barbara, CA. More information available from US FCC via Universal Licensing System and Coast Guard Vessel Documentation Center.

Last reported at 2018-Apr-22 22:44 UTC. Time now 2018-May-23 07:02 UTC.
Position N 34°25' W 119°41'.
Warning: this ship's position is 30 days out of date.

Length 14 m.

Type: Pleasure craft. MMSI: 366830720.

Date/timePositionNaut miles runAvg speedWind from/ knotsBaromVisibWave heightAir tempDewpointWater temp
2018-Apr-22 22:44N 34°25' W 119°41'1 5.0
2018-Apr-22 22:30N 34°24' W 119°40'4 6.6
2018-Apr-22 21:57N 34°22' W 119°36'3 6.6
2018-Apr-22 21:30N 34°20' W 119°33'3 6.7
2018-Apr-22 20:58N 34°18' W 119°30'3 6.7
2018-Apr-22 20:30N 34°16' W 119°27'3 6.7
2018-Apr-22 19:59N 34°14' W 119°23'3 6.8
2018-Apr-22 19:30N 34°13' W 119°20'3 6.7
2018-Apr-22 19:00N 34°11' W 119°17'3 5.6
2018-Apr-22 18:30N 34°09' W 119°14'  
2018-Apr-19 18:10N 34°10' W 119°14'7 5.9
2018-Apr-19 16:56N 34°13' W 119°21'3 7.3
2018-Apr-19 16:29N 34°15' W 119°24'4 7.3
2018-Apr-19 15:52N 34°18' W 119°29'4 7.3
2018-Apr-19 15:18N 34°20' W 119°33'  

Dump ship's entire track history